sensor_id;sensor_type;location;lat;lon;timestamp;pressure;altitude;pressure_sealevel;temperature;humidity
13604;BME280;24578;48.264;11.436;2022-09-09T00:04:20;95952.94;;;12.01;100.00
13604;BME280;24578;48.264;11.436;2022-09-09T00:07:43;95955.44;;;12.03;100.00
13604;BME280;24578;48.264;11.436;2022-09-09T00:10:47;95961.44;;;12.03;100.00
13604;BME280;24578;48.264;11.436;2022-09-09T00:13:51;95959.53;;;12.06;100.00
13604;BME280;24578;48.264;11.436;2022-09-09T00:16:54;95955.84;;;12.08;100.00
13604;BME280;24578;48.264;11.436;2022-09-09T00:32:41;95942.63;;;12.11;100.00
13604;BME280;24578;48.264;11.436;2022-09-09T00:35:47;95946.31;;;12.09;100.00
13604;BME280;24578;48.264;11.436;2022-09-09T00:38:49;95937.97;;;12.05;100.00
13604;BME280;24578;48.264;11.436;2022-09-09T00:48:12;95940.34;;;11.97;100.00
13604;BME280;24578;48.264;11.436;2022-09-09T00:51:31;95943.88;;;11.96;100.00
13604;BME280;24578;48.264;11.436;2022-09-09T00:57:55;95937.44;;;11.90;100.00
13604;BME280;24578;48.264;11.436;2022-09-09T01:00:57;95945.44;;;11.87;100.00
13604;BME280;24578;48.264;11.436;2022-09-09T01:04:00;95941.34;;;11.84;100.00
13604;BME280;24578;48.264;11.436;2022-09-09T01:07:07;95940.50;;;11.84;100.00
13604;BME280;24578;48.264;11.436;2022-09-09T01:10:57;95937.81;;;11.85;100.00
13604;BME280;24578;48.264;11.436;2022-09-09T01:13:34;95940.28;;;11.87;100.00
13604;BME280;24578;48.264;11.436;2022-09-09T01:16:35;95941.09;;;11.87;100.00
13604;BME280;24578;48.264;11.436;2022-09-09T01:29:10;95941.91;;;11.88;100.00
13604;BME280;24578;48.264;11.436;2022-09-09T01:35:42;95938.50;;;11.87;100.00
13604;BME280;24578;48.264;11.436;2022-09-09T01:38:45;95943.69;;;11.87;100.00
13604;BME280;24578;48.264;11.436;2022-09-09T01:41:45;95943.00;;;11.85;100.00
13604;BME280;24578;48.264;11.436;2022-09-09T01:44:45;95942.28;;;11.83;100.00
13604;BME280;24578;48.264;11.436;2022-09-09T01:47:46;95947.72;;;11.80;100.00
13604;BME280;24578;48.264;11.436;2022-09-09T01:50:46;95938.31;;;11.79;100.00
13604;BME280;24578;48.264;11.436;2022-09-09T01:53:46;95942.69;;;11.79;100.00
13604;BME280;24578;48.264;11.436;2022-09-09T02:00:09;95943.63;;;11.78;100.00
13604;BME280;24578;48.264;11.436;2022-09-09T02:09:14;95930.53;;;11.79;100.00
13604;BME280;24578;48.264;11.436;2022-09-09T02:12:18;95920.28;;;11.78;100.00
13604;BME280;24578;48.264;11.436;2022-09-09T02:16:04;95914.41;;;11.76;100.00
13604;BME280;24578;48.264;11.436;2022-09-09T02:18:49;95921.38;;;11.75;100.00
13604;BME280;24578;48.264;11.436;2022-09-09T02:21:50;95918.78;;;11.75;100.00
13604;BME280;24578;48.264;11.436;2022-09-09T02:24:51;95924.63;;;11.77;100.00
13604;BME280;24578;48.264;11.436;2022-09-09T02:27:55;95923.59;;;11.80;100.00
13604;BME280;24578;48.264;11.436;2022-09-09T02:30:58;95920.03;;;11.81;100.00
13604;BME280;24578;48.264;11.436;2022-09-09T02:33:59;95922.75;;;11.79;100.00
13604;BME280;24578;48.264;11.436;2022-09-09T02:37:00;95921.09;;;11.78;100.00
13604;BME280;24578;48.264;11.436;2022-09-09T02:40:03;95916.19;;;11.75;100.00
13604;BME280;24578;48.264;11.436;2022-09-09T02:43:04;95922.44;;;11.72;100.00
13604;BME280;24578;48.264;11.436;2022-09-09T02:46:15;95923.63;;;11.68;100.00
13604;BME280;24578;48.264;11.436;2022-09-09T02:52:44;95918.13;;;11.62;100.00
13604;BME280;24578;48.264;11.436;2022-09-09T02:58:47;95919.19;;;11.59;100.00
13604;BME280;24578;48.264;11.436;2022-09-09T03:01:48;95910.34;;;11.62;100.00
13604;BME280;24578;48.264;11.436;2022-09-09T03:04:48;95914.47;;;11.64;100.00
13604;BME280;24578;48.264;11.436;2022-09-09T03:07:51;95914.09;;;11.69;100.00
13604;BME280;24578;48.264;11.436;2022-09-09T03:10:52;95903.47;;;11.72;100.00
13604;BME280;24578;48.264;11.436;2022-09-09T03:13:54;95906.63;;;11.76;100.00
13604;BME280;24578;48.264;11.436;2022-09-09T03:16:56;95908.28;;;11.77;100.00
13604;BME280;24578;48.264;11.436;2022-09-09T03:19:57;95908.97;;;11.79;100.00
13604;BME280;24578;48.264;11.436;2022-09-09T03:22:58;95906.94;;;11.82;100.00
13604;BME280;24578;48.264;11.436;2022-09-09T03:25:59;95908.44;;;11.85;100.00
13604;BME280;24578;48.264;11.436;2022-09-09T03:29:00;95907.41;;;11.87;100.00
13604;BME280;24578;48.264;11.436;2022-09-09T03:32:00;95912.19;;;11.92;100.00
13604;BME280;24578;48.264;11.436;2022-09-09T03:35:00;95905.56;;;11.99;100.00
13604;BME280;24578;48.264;11.436;2022-09-09T03:38:01;95907.41;;;12.09;100.00
13604;BME280;24578;48.264;11.436;2022-09-09T03:41:01;95909.34;;;12.16;100.00
13604;BME280;24578;48.264;11.436;2022-09-09T03:44:02;95903.06;;;12.19;100.00
13604;BME280;24578;48.264;11.436;2022-09-09T03:47:02;95903.63;;;12.23;100.00
13604;BME280;24578;48.264;11.436;2022-09-09T03:50:02;95899.13;;;12.25;100.00
13604;BME280;24578;48.264;11.436;2022-09-09T03:53:04;95908.47;;;12.27;100.00
13604;BME280;24578;48.264;11.436;2022-09-09T03:56:06;95905.22;;;12.35;100.00
13604;BME280;24578;48.264;11.436;2022-09-09T03:59:07;95896.34;;;12.38;100.00
13604;BME280;24578;48.264;11.436;2022-09-09T04:02:08;95899.38;;;12.43;100.00
13604;BME280;24578;48.264;11.436;2022-09-09T04:05:09;95893.22;;;12.44;100.00
13604;BME280;24578;48.264;11.436;2022-09-09T04:08:09;95893.91;;;12.46;100.00
13604;BME280;24578;48.264;11.436;2022-09-09T04:11:11;95897.47;;;12.45;100.00
13604;BME280;24578;48.264;11.436;2022-09-09T04:14:11;95894.03;;;12.44;100.00
13604;BME280;24578;48.264;11.436;2022-09-09T04:17:12;95895.94;;;12.42;100.00
13604;BME280;24578;48.264;11.436;2022-09-09T04:20:13;95883.91;;;12.41;100.00
13604;BME280;24578;48.264;11.436;2022-09-09T04:23:13;95892.94;;;12.47;100.00
13604;BME280;24578;48.264;11.436;2022-09-09T04:26:14;95898.72;;;12.51;100.00
13604;BME280;24578;48.264;11.436;2022-09-09T04:29:14;95899.00;;;12.57;100.00
13604;BME280;24578;48.264;11.436;2022-09-09T04:32:14;95887.28;;;12.63;100.00
13604;BME280;24578;48.264;11.436;2022-09-09T04:35:15;95890.16;;;12.70;100.00
13604;BME280;24578;48.264;11.436;2022-09-09T04:38:16;95891.84;;;12.81;100.00
13604;BME280;24578;48.264;11.436;2022-09-09T04:41:17;95882.00;;;12.84;100.00
13604;BME280;24578;48.264;11.436;2022-09-09T04:44:17;95876.66;;;12.86;100.00
13604;BME280;24578;48.264;11.436;2022-09-09T04:47:17;95876.53;;;12.87;100.00
13604;BME280;24578;48.264;11.436;2022-09-09T04:50:17;95881.84;;;12.86;100.00
13604;BME280;24578;48.264;11.436;2022-09-09T04:53:18;95882.81;;;12.85;100.00
13604;BME280;24578;48.264;11.436;2022-09-09T04:56:18;95876.53;;;12.87;100.00
13604;BME280;24578;48.264;11.436;2022-09-09T04:59:19;95877.34;;;12.88;100.00
13604;BME280;24578;48.264;11.436;2022-09-09T05:02:19;95883.22;;;12.90;100.00
13604;BME280;24578;48.264;11.436;2022-09-09T05:05:19;95874.63;;;12.89;100.00
13604;BME280;24578;48.264;11.436;2022-09-09T05:08:20;95879.00;;;12.89;100.00
13604;BME280;24578;48.264;11.436;2022-09-09T05:11:27;95883.22;;;12.90;100.00
13604;BME280;24578;48.264;11.436;2022-09-09T05:14:28;95881.47;;;12.90;100.00
13604;BME280;24578;48.264;11.436;2022-09-09T05:17:29;95883.94;;;12.92;100.00
13604;BME280;24578;48.264;11.436;2022-09-09T05:20:29;95883.09;;;13.01;100.00
13604;BME280;24578;48.264;11.436;2022-09-09T05:23:29;95880.13;;;13.06;100.00
13604;BME280;24578;48.264;11.436;2022-09-09T05:26:29;95885.03;;;13.09;100.00
13604;BME280;24578;48.264;11.436;2022-09-09T05:29:31;95891.50;;;13.15;100.00
13604;BME280;24578;48.264;11.436;2022-09-09T05:32:33;95889.97;;;13.22;100.00
13604;BME280;24578;48.264;11.436;2022-09-09T05:35:34;95897.63;;;13.33;100.00
13604;BME280;24578;48.264;11.436;2022-09-09T05:38:34;95897.69;;;13.53;100.00
13604;BME280;24578;48.264;11.436;2022-09-09T05:41:35;95904.09;;;13.68;100.00
13604;BME280;24578;48.264;11.436;2022-09-09T05:44:35;95899.16;;;13.85;100.00
13604;BME280;24578;48.264;11.436;2022-09-09T05:47:37;95903.91;;;14.09;100.00
13604;BME280;24578;48.264;11.436;2022-09-09T05:50:37;95903.66;;;14.40;100.00
13604;BME280;24578;48.264;11.436;2022-09-09T05:53:37;95898.88;;;14.36;100.00
13604;BME280;24578;48.264;11.436;2022-09-09T05:56:38;95899.31;;;14.31;100.00
13604;BME280;24578;48.264;11.436;2022-09-09T05:59:39;95904.38;;;14.32;100.00
13604;BME280;24578;48.264;11.436;2022-09-09T06:02:39;95901.22;;;14.39;100.00
13604;BME280;24578;48.264;11.436;2022-09-09T06:05:41;95902.97;;;14.38;100.00
13604;BME280;24578;48.264;11.436;2022-09-09T06:08:42;95905.88;;;14.35;100.00
13604;BME280;24578;48.264;11.436;2022-09-09T06:11:44;95901.78;;;14.32;100.00
13604;BME280;24578;48.264;11.436;2022-09-09T06:14:45;95905.50;;;14.30;100.00
13604;BME280;24578;48.264;11.436;2022-09-09T06:17:46;95910.09;;;14.36;100.00
13604;BME280;24578;48.264;11.436;2022-09-09T06:20:56;95906.78;;;14.44;100.00
13604;BME280;24578;48.264;11.436;2022-09-09T06:23:57;95895.81;;;14.50;100.00
13604;BME280;24578;48.264;11.436;2022-09-09T06:26:57;95900.81;;;14.61;100.00
13604;BME280;24578;48.264;11.436;2022-09-09T06:29:57;95898.66;;;14.57;100.00
13604;BME280;24578;48.264;11.436;2022-09-09T06:32:58;95903.63;;;14.50;100.00
13604;BME280;24578;48.264;11.436;2022-09-09T06:35:58;95908.78;;;14.60;100.00
13604;BME280;24578;48.264;11.436;2022-09-09T06:38:58;95920.16;;;14.69;100.00
13604;BME280;24578;48.264;11.436;2022-09-09T06:41:59;95932.16;;;14.80;100.00
13604;BME280;24578;48.264;11.436;2022-09-09T06:44:59;95933.25;;;14.87;100.00
13604;BME280;24578;48.264;11.436;2022-09-09T06:47:59;95928.59;;;14.81;100.00
13604;BME280;24578;48.264;11.436;2022-09-09T06:51:10;95947.78;;;14.80;100.00
13604;BME280;24578;48.264;11.436;2022-09-09T06:54:13;95956.28;;;14.82;100.00
13604;BME280;24578;48.264;11.436;2022-09-09T06:57:13;95983.19;;;14.82;100.00
13604;BME280;24578;48.264;11.436;2022-09-09T07:00:14;95991.28;;;14.79;100.00
13604;BME280;24578;48.264;11.436;2022-09-09T07:03:14;95978.16;;;14.71;100.00
13604;BME280;24578;48.264;11.436;2022-09-09T07:06:15;95992.53;;;14.75;100.00
13604;BME280;24578;48.264;11.436;2022-09-09T07:09:17;95993.47;;;14.74;100.00
13604;BME280;24578;48.264;11.436;2022-09-09T07:12:17;95991.19;;;14.71;100.00
13604;BME280;24578;48.264;11.436;2022-09-09T07:15:17;95988.84;;;14.68;100.00
13604;BME280;24578;48.264;11.436;2022-09-09T07:18:18;95991.47;;;14.68;100.00
13604;BME280;24578;48.264;11.436;2022-09-09T07:21:19;95982.38;;;14.72;100.00
13604;BME280;24578;48.264;11.436;2022-09-09T07:24:20;95977.69;;;14.85;100.00
13604;BME280;24578;48.264;11.436;2022-09-09T07:27:21;95983.09;;;15.02;100.00
13604;BME280;24578;48.264;11.436;2022-09-09T07:30:21;95989.47;;;15.17;100.00
13604;BME280;24578;48.264;11.436;2022-09-09T07:33:22;95990.75;;;15.31;100.00
13604;BME280;24578;48.264;11.436;2022-09-09T07:36:24;95987.88;;;15.52;100.00
13604;BME280;24578;48.264;11.436;2022-09-09T07:39:25;95986.03;;;15.63;100.00
13604;BME280;24578;48.264;11.436;2022-09-09T07:42:25;95986.03;;;15.63;100.00
13604;BME280;24578;48.264;11.436;2022-09-09T07:45:26;95981.84;;;15.70;100.00
13604;BME280;24578;48.264;11.436;2022-09-09T07:48:28;95983.69;;;15.78;100.00
13604;BME280;24578;48.264;11.436;2022-09-09T07:51:30;95994.66;;;15.81;100.00
13604;BME280;24578;48.264;11.436;2022-09-09T07:54:30;96001.63;;;15.91;100.00
13604;BME280;24578;48.264;11.436;2022-09-09T07:57:32;96012.00;;;16.01;100.00
13604;BME280;24578;48.264;11.436;2022-09-09T08:00:32;96012.22;;;16.07;100.00
13604;BME280;24578;48.264;11.436;2022-09-09T08:03:33;96021.97;;;16.05;100.00
13604;BME280;24578;48.264;11.436;2022-09-09T08:06:38;96011.44;;;15.97;100.00
13604;BME280;24578;48.264;11.436;2022-09-09T08:09:39;96019.59;;;15.94;100.00
13604;BME280;24578;48.264;11.436;2022-09-09T08:12:39;96018.69;;;16.03;100.00
13604;BME280;24578;48.264;11.436;2022-09-09T08:15:39;96024.59;;;16.05;100.00
13604;BME280;24578;48.264;11.436;2022-09-09T08:18:41;96027.38;;;16.04;100.00
13604;BME280;24578;48.264;11.436;2022-09-09T08:21:42;96032.41;;;16.05;100.00
13604;BME280;24578;48.264;11.436;2022-09-09T08:24:42;96034.56;;;16.10;100.00
13604;BME280;24578;48.264;11.436;2022-09-09T08:27:42;96012.44;;;16.14;100.00
13604;BME280;24578;48.264;11.436;2022-09-09T08:30:43;96005.47;;;16.23;100.00
13604;BME280;24578;48.264;11.436;2022-09-09T08:33:43;96007.78;;;16.26;100.00
13604;BME280;24578;48.264;11.436;2022-09-09T08:36:46;96009.78;;;16.32;100.00
13604;BME280;24578;48.264;11.436;2022-09-09T08:39:46;96017.22;;;16.45;100.00
13604;BME280;24578;48.264;11.436;2022-09-09T08:42:49;96018.13;;;16.62;100.00
13604;BME280;24578;48.264;11.436;2022-09-09T08:46:00;96011.66;;;16.74;100.00
13604;BME280;24578;48.264;11.436;2022-09-09T08:52:21;96020.41;;;17.18;100.00
13604;BME280;24578;48.264;11.436;2022-09-09T08:58:51;96013.69;;;17.75;100.00
13604;BME280;24578;48.264;11.436;2022-09-09T09:04:58;96016.69;;;18.05;100.00
13604;BME280;24578;48.264;11.436;2022-09-09T09:11:02;96014.06;;;18.46;98.33
13604;BME280;24578;48.264;11.436;2022-09-09T09:14:13;96017.38;;;19.13;94.55
13604;BME280;24578;48.264;11.436;2022-09-09T09:17:19;96014.47;;;19.71;92.75
13604;BME280;24578;48.264;11.436;2022-09-09T09:20:27;96020.97;;;19.52;88.18
13604;BME280;24578;48.264;11.436;2022-09-09T09:23:42;96016.59;;;18.87;90.96
13604;BME280;24578;48.264;11.436;2022-09-09T09:26:44;96010.25;;;18.82;92.22
13604;BME280;24578;48.264;11.436;2022-09-09T09:29:45;96010.22;;;18.98;93.58
13604;BME280;24578;48.264;11.436;2022-09-09T09:32:50;96015.56;;;19.13;94.17
13604;BME280;24578;48.264;11.436;2022-09-09T09:35:52;96016.69;;;19.19;93.38
13604;BME280;24578;48.264;11.436;2022-09-09T09:38:59;96016.53;;;19.12;94.93
13604;BME280;24578;48.264;11.436;2022-09-09T09:42:07;96012.16;;;19.05;94.77
13604;BME280;24578;48.264;11.436;2022-09-09T09:45:13;96016.78;;;18.94;95.24
13604;BME280;24578;48.264;11.436;2022-09-09T09:48:14;96015.13;;;18.85;94.11
13604;BME280;24578;48.264;11.436;2022-09-09T09:51:22;96020.91;;;18.72;94.94
13604;BME280;24578;48.264;11.436;2022-09-09T09:54:27;96018.94;;;18.66;94.97
13604;BME280;24578;48.264;11.436;2022-09-09T09:57:29;96021.09;;;18.62;93.36
13604;BME280;24578;48.264;11.436;2022-09-09T10:00:30;96022.53;;;18.73;94.76
13604;BME280;24578;48.264;11.436;2022-09-09T10:03:32;96025.16;;;18.73;94.49
13604;BME280;24578;48.264;11.436;2022-09-09T10:06:35;96020.06;;;18.71;93.40
13604;BME280;24578;48.264;11.436;2022-09-09T10:09:36;96023.16;;;18.83;94.76
13604;BME280;24578;48.264;11.436;2022-09-09T10:13:00;96024.16;;;18.82;92.76
13604;BME280;24578;48.264;11.436;2022-09-09T10:19:15;96024.41;;;19.21;89.84
13604;BME280;24578;48.264;11.436;2022-09-09T10:28:53;96016.88;;;19.81;81.74
13604;BME280;24578;48.264;11.436;2022-09-09T10:31:59;96014.59;;;20.24;82.01
13604;BME280;24578;48.264;11.436;2022-09-09T10:35:25;96018.91;;;20.17;78.23
13604;BME280;24578;48.264;11.436;2022-09-09T10:51:21;96003.34;;;20.53;80.87
13604;BME280;24578;48.264;11.436;2022-09-09T10:54:32;96009.25;;;20.32;79.81
13604;BME280;24578;48.264;11.436;2022-09-09T10:57:40;95999.78;;;20.31;79.92
13604;BME280;24578;48.264;11.436;2022-09-09T11:00:42;96012.03;;;19.69;81.68
13604;BME280;24578;48.264;11.436;2022-09-09T11:03:46;96015.09;;;19.73;83.55
13604;BME280;24578;48.264;11.436;2022-09-09T11:17:56;96008.75;;;20.37;81.99
13604;BME280;24578;48.264;11.436;2022-09-09T11:20:59;95997.06;;;20.78;77.62
13604;BME280;24578;48.264;11.436;2022-09-09T11:24:06;96002.09;;;20.94;76.86
13604;BME280;24578;48.264;11.436;2022-09-09T11:27:28;95996.41;;;21.06;77.57
13604;BME280;24578;48.264;11.436;2022-09-09T11:30:56;95992.38;;;21.25;75.98
13604;BME280;24578;48.264;11.436;2022-09-09T11:37:25;95988.91;;;21.98;74.48
13604;BME280;24578;48.264;11.436;2022-09-09T11:40:29;95984.56;;;22.33;70.50
13604;BME280;24578;48.264;11.436;2022-09-09T11:43:31;95996.16;;;21.52;68.51
13604;BME280;24578;48.264;11.436;2022-09-09T11:46:34;95992.03;;;21.50;68.71
13604;BME280;24578;48.264;11.436;2022-09-09T11:52:39;95994.06;;;21.84;66.22
13604;BME280;24578;48.264;11.436;2022-09-09T11:58:55;95984.22;;;23.62;62.06
13604;BME280;24578;48.264;11.436;2022-09-09T12:02:17;95982.84;;;23.86;58.66
13604;BME280;24578;48.264;11.436;2022-09-09T12:05:20;95995.84;;;23.19;60.13
13604;BME280;24578;48.264;11.436;2022-09-09T12:08:27;95988.16;;;22.89;60.88
13604;BME280;24578;48.264;11.436;2022-09-09T12:11:30;95997.69;;;22.84;62.49
13604;BME280;24578;48.264;11.436;2022-09-09T12:17:50;95981.88;;;22.48;62.10
13604;BME280;24578;48.264;11.436;2022-09-09T12:24:24;95978.34;;;22.19;62.00
13604;BME280;24578;48.264;11.436;2022-09-09T12:27:28;95977.84;;;22.31;60.10
13604;BME280;24578;48.264;11.436;2022-09-09T12:30:39;95970.41;;;22.41;59.64
13604;BME280;24578;48.264;11.436;2022-09-09T12:33:42;95963.50;;;22.40;60.44
13604;BME280;24578;48.264;11.436;2022-09-09T12:36:46;95966.34;;;22.67;58.65
13604;BME280;24578;48.264;11.436;2022-09-09T12:42:56;95964.03;;;22.92;57.70
13604;BME280;24578;48.264;11.436;2022-09-09T12:49:26;95961.44;;;22.57;55.79
13604;BME280;24578;48.264;11.436;2022-09-09T12:52:28;95946.97;;;22.25;55.98
13604;BME280;24578;48.264;11.436;2022-09-09T12:55:31;95950.78;;;22.44;56.54
13604;BME280;24578;48.264;11.436;2022-09-09T12:58:33;95944.03;;;22.41;57.35
13604;BME280;24578;48.264;11.436;2022-09-09T13:01:35;95942.69;;;22.24;57.54
13604;BME280;24578;48.264;11.436;2022-09-09T13:04:35;95936.69;;;22.30;59.51
13604;BME280;24578;48.264;11.436;2022-09-09T13:07:35;95935.09;;;22.64;58.53
13604;BME280;24578;48.264;11.436;2022-09-09T13:13:42;95930.66;;;22.71;60.14
13604;BME280;24578;48.264;11.436;2022-09-09T13:16:43;95933.44;;;22.06;59.73
13604;BME280;24578;48.264;11.436;2022-09-09T13:19:43;95930.53;;;21.72;60.97
13604;BME280;24578;48.264;11.436;2022-09-09T13:22:46;95935.16;;;21.70;62.83
13604;BME280;24578;48.264;11.436;2022-09-09T13:26:01;95922.19;;;21.90;62.76
13604;BME280;24578;48.264;11.436;2022-09-09T13:29:35;95914.28;;;21.90;62.75
13604;BME280;24578;48.264;11.436;2022-09-09T13:32:29;95915.22;;;21.83;62.19
13604;BME280;24578;48.264;11.436;2022-09-09T13:35:31;95912.78;;;21.01;63.52
13604;BME280;24578;48.264;11.436;2022-09-09T13:38:33;95901.25;;;20.87;65.13
13604;BME280;24578;48.264;11.436;2022-09-09T13:44:36;95899.81;;;20.54;66.47
13604;BME280;24578;48.264;11.436;2022-09-09T13:47:38;95897.19;;;20.84;65.81
13604;BME280;24578;48.264;11.436;2022-09-09T13:50:39;95896.47;;;20.76;65.69
13604;BME280;24578;48.264;11.436;2022-09-09T13:53:39;95890.56;;;20.74;66.91
13604;BME280;24578;48.264;11.436;2022-09-09T13:56:40;95893.53;;;21.01;64.61
13604;BME280;24578;48.264;11.436;2022-09-09T13:59:41;95891.16;;;21.06;66.26
13604;BME280;24578;48.264;11.436;2022-09-09T14:02:41;95889.25;;;21.14;63.61
13604;BME280;24578;48.264;11.436;2022-09-09T14:05:41;95883.78;;;21.59;64.12
13604;BME280;24578;48.264;11.436;2022-09-09T14:08:42;95885.63;;;21.59;63.67
13604;BME280;24578;48.264;11.436;2022-09-09T14:11:43;95887.13;;;21.47;63.96
13604;BME280;24578;48.264;11.436;2022-09-09T14:14:43;95895.03;;;21.10;65.82
13604;BME280;24578;48.264;11.436;2022-09-09T14:17:44;95900.34;;;20.65;69.92
13604;BME280;24578;48.264;11.436;2022-09-09T14:20:44;95908.88;;;20.52;71.01
13604;BME280;24578;48.264;11.436;2022-09-09T14:23:44;95901.97;;;19.83;75.71
13604;BME280;24578;48.264;11.436;2022-09-09T14:26:45;95920.59;;;19.50;77.54
13604;BME280;24578;48.264;11.436;2022-09-09T14:29:45;95908.22;;;19.35;78.81
13604;BME280;24578;48.264;11.436;2022-09-09T14:32:45;95919.75;;;19.72;78.43
13604;BME280;24578;48.264;11.436;2022-09-09T14:35:45;95920.25;;;20.14;77.76
13604;BME280;24578;48.264;11.436;2022-09-09T14:38:45;95912.31;;;20.52;74.77
13604;BME280;24578;48.264;11.436;2022-09-09T14:41:46;95926.81;;;20.33;74.92
13604;BME280;24578;48.264;11.436;2022-09-09T14:44:46;95919.31;;;19.92;75.58
13604;BME280;24578;48.264;11.436;2022-09-09T14:47:49;95931.03;;;19.58;73.51
13604;BME280;24578;48.264;11.436;2022-09-09T14:50:49;95927.06;;;19.62;71.27
13604;BME280;24578;48.264;11.436;2022-09-09T14:53:54;95927.63;;;19.72;70.58
13604;BME280;24578;48.264;11.436;2022-09-09T14:56:55;95928.47;;;19.50;71.72
13604;BME280;24578;48.264;11.436;2022-09-09T14:59:57;95934.81;;;19.55;70.85
13604;BME280;24578;48.264;11.436;2022-09-09T15:02:57;95936.63;;;19.55;70.63
13604;BME280;24578;48.264;11.436;2022-09-09T15:05:57;95939.31;;;19.46;70.71
13604;BME280;24578;48.264;11.436;2022-09-09T15:08:58;95941.88;;;19.55;70.76
13604;BME280;24578;48.264;11.436;2022-09-09T15:11:58;95924.38;;;19.70;70.88
13604;BME280;24578;48.264;11.436;2022-09-09T15:14:59;95921.16;;;19.60;71.38
13604;BME280;24578;48.264;11.436;2022-09-09T15:17:59;95909.69;;;19.61;71.09
13604;BME280;24578;48.264;11.436;2022-09-09T15:20:59;95914.34;;;19.51;70.47
13604;BME280;24578;48.264;11.436;2022-09-09T15:24:01;95912.94;;;19.63;70.76
13604;BME280;24578;48.264;11.436;2022-09-09T15:27:01;95903.59;;;19.84;69.07
13604;BME280;24578;48.264;11.436;2022-09-09T15:30:02;95894.91;;;19.83;69.11
13604;BME280;24578;48.264;11.436;2022-09-09T15:33:07;95908.75;;;19.54;71.47
13604;BME280;24578;48.264;11.436;2022-09-09T15:36:17;95911.22;;;19.24;71.96
13604;BME280;24578;48.264;11.436;2022-09-09T15:39:18;95905.25;;;19.15;73.25
13604;BME280;24578;48.264;11.436;2022-09-09T15:42:18;95901.06;;;18.89;75.36
13604;BME280;24578;48.264;11.436;2022-09-09T15:45:19;95910.47;;;18.75;76.71
13604;BME280;24578;48.264;11.436;2022-09-09T15:48:21;95903.63;;;18.66;78.40
13604;BME280;24578;48.264;11.436;2022-09-09T15:51:29;95906.25;;;18.66;77.70
13604;BME280;24578;48.264;11.436;2022-09-09T15:54:36;95905.09;;;18.68;78.00
13604;BME280;24578;48.264;11.436;2022-09-09T15:57:39;95901.69;;;18.60;78.68
13604;BME280;24578;48.264;11.436;2022-09-09T16:00:39;95894.88;;;18.42;78.95
13604;BME280;24578;48.264;11.436;2022-09-09T16:03:40;95893.88;;;18.35;80.53
13604;BME280;24578;48.264;11.436;2022-09-09T16:06:46;95893.22;;;18.33;79.99
13604;BME280;24578;48.264;11.436;2022-09-09T16:09:46;95896.19;;;18.38;79.63
13604;BME280;24578;48.264;11.436;2022-09-09T16:12:46;95892.06;;;18.52;78.99
13604;BME280;24578;48.264;11.436;2022-09-09T16:15:53;95885.25;;;18.74;78.08
13604;BME280;24578;48.264;11.436;2022-09-09T16:18:54;95891.81;;;18.62;77.68
13604;BME280;24578;48.264;11.436;2022-09-09T16:21:54;95881.19;;;18.63;78.62
13604;BME280;24578;48.264;11.436;2022-09-09T16:24:54;95876.25;;;18.68;78.57
13604;BME280;24578;48.264;11.436;2022-09-09T16:27:55;95878.88;;;18.68;77.22
13604;BME280;24578;48.264;11.436;2022-09-09T16:30:55;95879.75;;;18.52;77.06
13604;BME280;24578;48.264;11.436;2022-09-09T16:33:55;95877.97;;;18.45;77.38
13604;BME280;24578;48.264;11.436;2022-09-09T16:36:55;95878.03;;;18.28;78.83
13604;BME280;24578;48.264;11.436;2022-09-09T16:39:56;95887.38;;;18.14;77.96
13604;BME280;24578;48.264;11.436;2022-09-09T16:42:56;95873.66;;;17.95;79.01
13604;BME280;24578;48.264;11.436;2022-09-09T16:45:56;95877.59;;;17.91;78.53
13604;BME280;24578;48.264;11.436;2022-09-09T16:48:57;95873.34;;;17.82;78.52
13604;BME280;24578;48.264;11.436;2022-09-09T16:51:58;95879.56;;;17.81;79.13
13604;BME280;24578;48.264;11.436;2022-09-09T16:54:59;95877.59;;;17.67;78.44
13604;BME280;24578;48.264;11.436;2022-09-09T16:57:59;95874.97;;;17.58;77.60
13604;BME280;24578;48.264;11.436;2022-09-09T17:01:00;95883.31;;;17.45;79.13
13604;BME280;24578;48.264;11.436;2022-09-09T17:04:02;95886.09;;;17.44;79.80
13604;BME280;24578;48.264;11.436;2022-09-09T17:07:02;95880.88;;;17.35;79.94
13604;BME280;24578;48.264;11.436;2022-09-09T17:10:03;95887.72;;;17.28;80.43
13604;BME280;24578;48.264;11.436;2022-09-09T17:13:03;95888.50;;;17.20;81.45
13604;BME280;24578;48.264;11.436;2022-09-09T17:16:04;95888.00;;;17.09;81.14
13604;BME280;24578;48.264;11.436;2022-09-09T17:19:04;95886.19;;;17.01;82.51
13604;BME280;24578;48.264;11.436;2022-09-09T17:22:05;95887.63;;;16.95;83.04
13604;BME280;24578;48.264;11.436;2022-09-09T17:25:05;95895.44;;;16.87;83.65
13604;BME280;24578;48.264;11.436;2022-09-09T17:28:06;95895.09;;;16.82;83.48
13604;BME280;24578;48.264;11.436;2022-09-09T17:31:06;95902.25;;;16.71;84.74
13604;BME280;24578;48.264;11.436;2022-09-09T17:34:08;95900.91;;;16.67;85.20
13604;BME280;24578;48.264;11.436;2022-09-09T17:37:08;95901.34;;;16.54;86.57
13604;BME280;24578;48.264;11.436;2022-09-09T17:40:08;95905.56;;;16.47;87.11
13604;BME280;24578;48.264;11.436;2022-09-09T17:43:08;95912.06;;;16.43;87.69
13604;BME280;24578;48.264;11.436;2022-09-09T17:49:10;95910.84;;;16.29;88.96
13604;BME280;24578;48.264;11.436;2022-09-09T17:52:11;95901.50;;;16.18;90.04
13604;BME280;24578;48.264;11.436;2022-09-09T17:55:12;95913.34;;;16.12;89.73
13604;BME280;24578;48.264;11.436;2022-09-09T17:58:12;95905.31;;;16.06;91.03
13604;BME280;24578;48.264;11.436;2022-09-09T18:01:15;95912.13;;;15.98;91.10